Time;durP1;ratioP1;P1;durP2;ratioP2;P2;SDS_P1;SDS_P2;PMS_P1;PMS_P2;Temp;Humidity;BMP_temperature;BMP_pressure;BME280_temperature;BME280_humidity;BME280_pressure;Samples;Min_cycle;Max_cycle;Signal;HPM_P1;HPM_P2
2023/06/25 00:01:01;;;;;;;5.28;4.10;;;;;;;19.03;51.78;97137.34;4948321;29;20138;-84
2023/06/25 00:03:32;;;;;;;5.53;4.43;;;;;;;19.02;51.82;97138.34;4947714;29;20393;-82
2023/06/25 00:06:05;;;;;;;4.53;4.13;;;;;;;18.97;52.07;97131.09;4948071;29;20599;-84
2023/06/25 00:08:38;;;;;;;4.53;3.53;;;;;;;19.00;52.13;97133.31;4948843;29;20055;-85
2023/06/25 00:11:07;;;;;;;6.00;4.20;;;;;;;19.00;52.01;97140.41;4946288;29;20047;-84
2023/06/25 00:13:36;;;;;;;7.57;4.28;;;;;;;19.00;51.99;97135.94;4940851;29;20059;-84
2023/06/25 00:16:07;;;;;;;4.65;4.05;;;;;;;18.99;51.96;97136.16;4941162;29;20063;-85
2023/06/25 00:18:35;;;;;;;5.68;3.97;;;;;;;18.94;52.24;97129.69;4941341;29;20070;-81
2023/06/25 00:21:05;;;;;;;5.03;4.13;;;;;;;18.92;52.28;97129.09;4940328;29;20252;-82
2023/06/25 00:23:32;;;;;;;6.88;3.72;;;;;;;18.89;52.37;97121.63;4941566;29;20079;-81
2023/06/25 00:26:00;;;;;;;4.63;3.97;;;;;;;18.91;53.31;97126.69;4941404;29;20052;-82
2023/06/25 00:28:27;;;;;;;4.18;3.70;;;;;;;18.89;52.63;97121.63;4942196;29;20052;-83
2023/06/25 00:30:55;;;;;;;7.72;3.85;;;;;;;18.87;52.47;97125.50;4943605;29;20479;-81
2023/06/25 00:33:24;;;;;;;4.78;4.38;;;;;;;18.85;52.66;97123.09;4943388;29;20056;-82
2023/06/25 00:36:06;;;;;;;5.25;3.97;;;;;;;18.84;52.80;97121.47;4943920;29;20086;-82
2023/06/25 00:38:35;;;;;;;5.05;3.92;;;;;;;18.83;52.65;97125.16;4945151;29;20055;-83
2023/06/25 00:41:03;;;;;;;4.90;4.05;;;;;;;18.80;52.66;97120.28;4943813;29;20051;-83
2023/06/25 00:43:30;;;;;;;3.70;3.33;;;;;;;18.77;52.70;97120.72;4944398;29;20043;-81
2023/06/25 00:45:58;;;;;;;4.93;3.90;;;;;;;18.79;54.15;97126.63;4942355;29;20111;-83
2023/06/25 00:48:28;;;;;;;9.73;4.15;;;;;;;18.82;53.18;97123.53;4941840;29;20103;-82
2023/06/25 00:51:00;;;;;;;5.28;3.78;;;;;;;18.82;52.85;97114.78;4941227;29;20059;-80
2023/06/25 00:53:34;;;;;;;4.30;3.90;;;;;;;18.83;53.95;97119.88;4941499;29;20055;-81
2023/06/25 00:56:01;;;;;;;5.90;3.55;;;;;;;18.87;53.86;97121.03;4941549;29;20059;-81
2023/06/25 00:58:29;;;;;;;6.72;4.15;;;;;;;18.92;53.44;97118.53;4940905;29;20115;-82
2023/06/25 01:01:00;;;;;;;6.07;3.60;;;;;;;18.98;52.63;97110.72;4941663;29;20055;-80
2023/06/25 01:03:31;;;;;;;3.92;3.35;;;;;;;19.03;54.07;97111.69;4943257;29;20551;-80
2023/06/25 01:06:07;;;;;;;6.47;3.85;;;;;;;19.07;52.14;97104.13;4942293;29;20051;-82
2023/06/25 01:08:40;;;;;;;6.90;4.43;;;;;;;19.09;52.10;97107.38;4942845;29;20059;-81
2023/06/25 01:11:10;;;;;;;6.03;3.63;;;;;;;19.12;51.74;97102.41;4942938;29;20496;-80
2023/06/25 01:13:39;;;;;;;4.65;3.80;;;;;;;19.16;51.90;97099.34;4942842;29;20504;-78
2023/06/25 01:16:06;;;;;;;5.40;4.18;;;;;;;19.17;52.07;97098.28;4941854;29;20567;-78
2023/06/25 01:18:39;;;;;;;4.95;3.85;;;;;;;19.18;52.40;97090.16;4941729;29;20052;-82
2023/06/25 01:21:23;;;;;;;5.30;4.15;;;;;;;19.20;52.66;97087.25;4942177;29;20059;-82
2023/06/25 01:23:53;;;;;;;5.63;4.70;;;;;;;19.14;51.88;97087.13;4941528;29;20047;-79
2023/06/25 01:26:21;;;;;;;5.10;3.28;;;;;;;19.11;54.29;97089.41;4941338;29;20087;-80
2023/06/25 01:28:48;;;;;;;4.80;4.30;;;;;;;19.07;52.86;97096.19;4941209;29;20055;-80
2023/06/25 01:31:16;;;;;;;4.35;3.95;;;;;;;19.04;53.70;97086.06;4941903;29;20539;-80
2023/06/25 01:33:44;;;;;;;7.72;4.65;;;;;;;18.98;52.72;97089.59;4940451;29;20514;-78
2023/06/25 01:36:11;;;;;;;4.40;4.00;;;;;;;18.90;54.51;97083.59;4941569;29;20083;-78
2023/06/25 01:38:39;;;;;;;4.38;3.97;;;;;;;18.90;54.64;97082.78;4941117;29;20048;-82
2023/06/25 01:41:08;;;;;;;6.47;4.10;;;;;;;18.92;54.28;97080.72;4940766;29;20143;-79
2023/06/25 01:43:35;;;;;;;4.35;3.65;;;;;;;18.98;54.07;97077.19;4940460;29;20119;-81
2023/06/25 01:46:03;;;;;;;5.30;3.50;;;;;;;19.08;53.92;97084.56;4939970;29;20051;-78
2023/06/25 01:48:31;;;;;;;4.40;3.92;;;;;;;19.15;53.00;97077.34;4940642;29;20055;-79
2023/06/25 01:50:59;;;;;;;5.53;4.13;;;;;;;19.20;52.88;97069.56;4940359;29;20142;-82
2023/06/25 01:53:26;;;;;;;5.07;3.88;;;;;;;19.23;52.21;97071.75;4940346;29;20114;-80
2023/06/25 01:55:54;;;;;;;6.97;4.05;;;;;;;19.24;51.13;97067.25;4940462;29;20051;-79
2023/06/25 01:58:23;;;;;;;6.57;3.92;;;;;;;19.25;51.79;97072.34;4939884;29;20071;-79
2023/06/25 02:00:50;;;;;;;4.03;3.60;;;;;;;19.25;51.26;97061.75;4939657;29;20115;-79
2023/06/25 02:03:18;;;;;;;6.95;4.80;;;;;;;19.19;50.83;97061.84;4938517;29;20134;-79
2023/06/25 02:05:46;;;;;;;4.82;4.05;;;;;;;19.16;52.56;97060.47;4939573;29;20056;-79
2023/06/25 02:08:13;;;;;;;4.78;4.10;;;;;;;19.15;50.36;97058.84;4939009;29;20048;-79
2023/06/25 02:10:41;;;;;;;4.57;3.88;;;;;;;19.14;50.26;97057.25;4938017;29;20103;-78
2023/06/25 02:13:09;;;;;;;4.32;3.92;;;;;;;19.13;50.24;97055.63;4939013;29;20051;-80
2023/06/25 02:15:38;;;;;;;5.20;4.22;;;;;;;19.17;49.82;97056.78;4941692;29;20082;-80
2023/06/25 02:18:06;;;;;;;7.38;4.00;;;;;;;19.16;49.79;97054.38;4940737;29;20058;-82
2023/06/25 02:20:34;;;;;;;5.03;4.53;;;;;;;19.12;49.68;97054.00;4942258;29;20056;-81
2023/06/25 02:23:02;;;;;;;6.22;4.18;;;;;;;19.06;49.34;97054.91;4942603;29;20060;-80
2023/06/25 02:25:29;;;;;;;4.63;4.13;;;;;;;19.02;49.23;97053.75;4942197;29;20112;-79
2023/06/25 02:27:57;;;;;;;4.55;4.15;;;;;;;19.02;50.03;97053.75;4941325;29;20114;-80
2023/06/25 02:30:24;;;;;;;4.47;4.07;;;;;;;19.01;50.91;97050.28;4941616;29;20056;-80
2023/06/25 02:32:53;;;;;;;5.63;4.28;;;;;;;19.03;49.55;97055.38;4941498;29;20075;-80
2023/06/25 02:35:21;;;;;;;7.07;4.82;;;;;;;19.04;50.25;97051.69;4941454;29;20543;-80
2023/06/25 02:37:48;;;;;;;4.18;3.67;;;;;;;19.06;50.29;97047.78;4941104;29;20052;-82
2023/06/25 02:40:16;;;;;;;5.55;4.35;;;;;;;19.09;49.62;97043.91;4946204;29;20480;-81
2023/06/25 02:42:44;;;;;;;6.18;4.30;;;;;;;19.11;49.66;97047.09;4941198;29;20052;-82
2023/06/25 02:45:11;;;;;;;4.68;3.90;;;;;;;19.15;50.07;97040.34;4941029;29;20701;-81
2023/06/25 02:47:39;;;;;;;4.60;4.20;;;;;;;19.13;49.15;97045.03;4940336;29;20048;-82
2023/06/25 02:50:09;;;;;;;5.57;4.65;;;;;;;19.09;49.48;97043.91;4941130;29;20051;-80
2023/06/25 02:52:36;;;;;;;5.10;4.60;;;;;;;19.07;49.02;97038.03;4940785;29;20496;-80
2023/06/25 02:55:05;;;;;;;5.28;4.18;;;;;;;19.04;49.33;97033.16;4940485;29;20047;-81
2023/06/25 02:57:33;;;;;;;6.35;4.38;;;;;;;19.05;48.90;97034.81;4940340;29;20061;-82
2023/06/25 03:00:00;;;;;;;5.78;4.68;;;;;;;19.05;48.57;97040.09;4940892;29;20052;-83
2023/06/25 03:02:28;;;;;;;7.28;4.82;;;;;;;19.03;48.07;97039.50;4940615;29;20048;-79
2023/06/25 03:04:56;;;;;;;7.20;4.97;;;;;;;19.00;48.52;97029.38;4940356;29;20115;-79
2023/06/25 03:07:25;;;;;;;7.85;4.63;;;;;;;19.00;48.37;97027.56;4939880;29;20123;-81
2023/06/25 03:09:53;;;;;;;5.43;4.63;;;;;;;19.00;48.46;97039.94;4939901;29;20048;-81
2023/06/25 03:12:20;;;;;;;5.55;4.30;;;;;;;18.93;48.60;97029.47;4939878;29;20047;-80
2023/06/25 03:14:48;;;;;;;5.10;4.60;;;;;;;18.90;48.22;97028.06;4939857;29;20099;-80
2023/06/25 03:17:16;;;;;;;5.78;4.90;;;;;;;18.87;48.38;97028.53;4939863;29;20055;-80
2023/06/25 03:19:44;;;;;;;9.13;5.13;;;;;;;18.86;48.29;97028.75;4939931;29;20051;-80
2023/06/25 03:22:12;;;;;;;6.05;5.05;;;;;;;18.85;48.51;97029.78;4940162;29;20401;-81
2023/06/25 03:24:40;;;;;;;7.38;5.07;;;;;;;18.81;48.20;97032.06;4940466;29;20083;-80
2023/06/25 03:27:08;;;;;;;6.68;4.80;;;;;;;18.73;48.28;97019.13;4939670;29;20127;-80
2023/06/25 03:29:36;;;;;;;5.72;4.90;;;;;;;18.70;48.68;97019.56;4942787;29;20050;-79
2023/06/25 03:32:04;;;;;;;5.85;4.60;;;;;;;18.72;48.59;97017.53;4944566;29;20113;-79
2023/06/25 03:34:32;;;;;;;5.70;4.72;;;;;;;18.77;48.39;97022.13;4943310;29;20413;-79
2023/06/25 03:36:59;;;;;;;6.95;5.28;;;;;;;18.78;47.94;97021.91;4942913;29;20052;-78
2023/06/25 03:39:27;;;;;;;6.65;5.22;;;;;;;18.78;48.22;97021.91;4942773;29;20043;-80
2023/06/25 03:41:56;;;;;;;6.32;4.95;;;;;;;18.80;49.03;97035.72;4942279;29;20094;-79
2023/06/25 03:44:23;;;;;;;7.20;4.90;;;;;;;18.76;48.31;97023.16;4941540;29;20056;-79
2023/06/25 03:46:51;;;;;;;5.57;4.75;;;;;;;18.69;48.18;97021.41;4942254;29;20060;-82
2023/06/25 03:49:18;;;;;;;7.07;4.95;;;;;;;18.62;48.17;97017.22;4942561;29;20083;-79
2023/06/25 03:51:46;;;;;;;6.53;4.88;;;;;;;18.62;48.29;97014.59;4943237;29;20082;-78
2023/06/25 03:54:14;;;;;;;5.60;4.70;;;;;;;18.61;48.12;97010.34;4942647;29;20119;-78
2023/06/25 03:56:41;;;;;;;5.05;4.30;;;;;;;18.58;48.56;97010.78;4943400;29;20083;-78
2023/06/25 03:59:10;;;;;;;6.80;4.32;;;;;;;18.59;49.04;97013.22;4943150;29;20500;-80
2023/06/25 04:01:38;;;;;;;8.77;5.07;;;;;;;18.57;48.39;97006.53;4943253;29;20052;-79
2023/06/25 04:04:05;;;;;;;6.80;4.95;;;;;;;18.50;48.50;97002.13;4943071;29;20058;-78
2023/06/25 04:06:33;;;;;;;10.60;5.57;;;;;;;18.42;48.74;97002.44;4942969;29;20059;-78
2023/06/25 04:09:00;;;;;;;6.82;5.15;;;;;;;18.34;49.01;97010.66;4942933;29;20056;-82
2023/06/25 04:11:28;;;;;;;6.05;5.28;;;;;;;18.26;49.21;97006.47;4943491;29;20079;-77
2023/06/25 04:13:56;;;;;;;8.55;4.75;;;;;;;18.26;49.07;97003.03;4942792;29;20059;-80
2023/06/25 04:16:24;;;;;;;6.60;4.88;;;;;;;18.27;49.04;96999.34;4943121;29;20051;-78
2023/06/25 04:18:52;;;;;;;8.15;5.00;;;;;;;18.25;48.92;97007.50;4942440;29;20087;-81
2023/06/25 04:21:20;;;;;;;5.82;4.90;;;;;;;18.26;49.02;96997.75;4942065;29;20055;-79
2023/06/25 04:23:47;;;;;;;7.18;5.30;;;;;;;18.30;48.74;96994.47;4941755;29;20067;-80
2023/06/25 04:26:15;;;;;;;6.18;5.15;;;;;;;18.30;48.73;96998.91;4941632;29;20055;-80
2023/06/25 04:28:42;;;;;;;6.22;5.53;;;;;;;18.31;49.50;96995.25;4941367;29;20075;-78
2023/06/25 04:31:10;;;;;;;6.00;5.15;;;;;;;18.31;48.70;96995.25;4941448;29;20103;-79
2023/06/25 04:33:41;;;;;;;8.05;5.22;;;;;;;18.33;48.62;97001.13;4941119;29;20530;-80
2023/06/25 04:36:10;;;;;;;6.03;5.05;;;;;;;18.38;49.14;97001.25;4973628;23;20102;-75
2023/06/25 04:38:38;;;;;;;6.82;5.65;;;;;;;18.42;48.40;97002.44;4956613;29;20079;-75
2023/06/25 04:41:05;;;;;;;6.57;5.63;;;;;;;18.40;48.44;96996.56;4956404;28;20054;-75
2023/06/25 04:43:33;;;;;;;8.27;5.43;;;;;;;18.41;48.39;96998.19;4957230;29;20051;-75
2023/06/25 04:46:00;;;;;;;6.60;5.30;;;;;;;18.40;48.32;96995.75;4956760;29;20063;-75
2023/06/25 04:48:28;;;;;;;7.07;5.45;;;;;;;18.40;48.29;96993.91;4957167;29;20051;-76
2023/06/25 04:50:57;;;;;;;6.22;5.35;;;;;;;18.44;48.83;96992.44;4956194;29;20051;-75
2023/06/25 04:53:25;;;;;;;7.47;5.60;;;;;;;18.46;48.27;96993.03;4956111;29;20051;-75
2023/06/25 04:55:52;;;;;;;6.68;5.10;;;;;;;18.47;49.10;96989.34;4956367;29;20053;-75
2023/06/25 04:58:20;;;;;;;9.93;5.80;;;;;;;18.53;50.04;96991.13;4956250;29;20142;-75
2023/06/25 05:00:47;;;;;;;7.05;5.43;;;;;;;18.58;49.34;96998.38;4954648;29;20043;-75
2023/06/25 05:03:15;;;;;;;6.95;6.13;;;;;;;18.63;48.87;96993.25;4955969;29;20083;-75
2023/06/25 05:05:42;;;;;;;9.65;5.63;;;;;;;18.68;49.12;97003.13;4955886;29;20652;-76
2023/06/25 05:08:12;;;;;;;6.63;5.60;;;;;;;18.71;48.82;97005.31;4956148;29;20159;-76
2023/06/25 05:10:41;;;;;;;6.60;5.30;;;;;;;18.74;48.93;97002.25;4946924;29;20512;-75
2023/06/25 05:13:09;;;;;;;6.80;5.72;;;;;;;18.79;48.41;97005.03;4939703;29;20115;-75
2023/06/25 05:15:39;;;;;;;7.10;5.45;;;;;;;18.82;48.88;97001.94;4952726;29;20138;-73
2023/06/25 05:18:07;;;;;;;7.40;5.63;;;;;;;18.89;48.69;97002.69;4955887;29;20110;-73
2023/06/25 05:20:36;;;;;;;6.80;5.47;;;;;;;18.92;48.95;96999.56;4955212;29;20090;-76
2023/06/25 05:23:04;;;;;;;6.25;5.00;;;;;;;18.97;49.08;97003.38;4955984;29;20051;-74
2023/06/25 05:25:33;;;;;;;6.25;5.53;;;;;;;18.99;48.74;97007.41;4955471;29;20567;-73
2023/06/25 05:28:03;;;;;;;6.45;5.55;;;;;;;19.03;48.95;97002.50;4944972;29;20087;-73
2023/06/25 05:30:31;;;;;;;8.15;5.72;;;;;;;19.08;49.03;96998.13;4944851;29;20050;-73
2023/06/25 05:33:02;;;;;;;6.70;5.07;;;;;;;19.14;48.71;96996.44;4955999;29;20051;-73
2023/06/25 05:35:29;;;;;;;6.03;5.43;;;;;;;19.22;48.44;96995.28;4955196;29;20053;-73
2023/06/25 05:37:57;;;;;;;7.25;5.55;;;;;;;19.28;48.22;96999.66;4936735;29;20060;-73
2023/06/25 05:40:26;;;;;;;7.20;5.30;;;;;;;19.32;48.93;96996.34;4944661;29;20464;-73
2023/06/25 05:42:55;;;;;;;11.70;5.72;;;;;;;19.38;48.87;96999.91;4955402;29;20452;-74
2023/06/25 05:45:23;;;;;;;6.85;5.70;;;;;;;19.42;48.17;96989.69;4957337;29;20047;-73
2023/06/25 05:47:50;;;;;;;5.93;5.30;;;;;;;19.46;48.95;96999.59;4968372;29;20082;-73
2023/06/25 05:50:18;;;;;;;6.70;5.45;;;;;;;19.49;48.93;96990.38;4963708;29;20058;-73
2023/06/25 05:52:46;;;;;;;6.72;5.40;;;;;;;19.53;48.77;96997.63;4954744;28;20138;-73
2023/06/25 05:55:13;;;;;;;6.68;5.65;;;;;;;19.59;48.46;96998.56;4954943;29;20086;-73
2023/06/25 05:57:41;;;;;;;5.97;5.38;;;;;;;19.64;48.09;96993.38;4936108;29;20094;-74
2023/06/25 06:00:11;;;;;;;7.78;5.90;;;;;;;19.68;48.53;97001.69;4947412;29;20043;-73
2023/06/25 06:02:38;;;;;;;11.18;6.28;;;;;;;19.71;47.65;97004.69;4953994;29;20079;-73
2023/06/25 06:05:07;;;;;;;6.88;6.10;;;;;;;19.74;47.80;97008.72;4954283;29;20047;-73
2023/06/25 06:07:34;;;;;;;7.50;6.50;;;;;;;19.78;47.28;97009.88;4954543;29;20047;-73
2023/06/25 06:10:02;;;;;;;9.63;6.03;;;;;;;19.80;48.36;97005.16;4954762;29;20039;-73
2023/06/25 06:12:30;;;;;;;6.35;5.75;;;;;;;19.87;47.93;97002.38;4954382;29;20062;-73
2023/06/25 06:14:57;;;;;;;7.25;5.75;;;;;;;19.92;47.43;97005.16;4954535;29;20055;-74
2023/06/25 06:17:26;;;;;;;6.90;6.10;;;;;;;19.96;46.84;97001.81;4954149;29;20051;-74
2023/06/25 06:19:54;;;;;;;8.88;6.80;;;;;;;20.02;46.66;96996.63;4953950;29;20047;-73
2023/06/25 06:22:22;;;;;;;7.82;6.43;;;;;;;20.07;46.59;96992.25;4954576;29;20483;-73
2023/06/25 06:24:50;;;;;;;7.75;6.78;;;;;;;20.13;46.28;96986.00;4954007;29;20450;-74
2023/06/25 06:27:18;;;;;;;6.78;6.07;;;;;;;20.19;46.26;96996.72;4954761;29;20141;-73
2023/06/25 06:29:46;;;;;;;7.22;6.25;;;;;;;20.25;46.47;96993.16;4954594;29;20430;-73
2023/06/25 06:32:13;;;;;;;8.02;6.05;;;;;;;20.30;46.38;96995.88;4954290;29;20625;-73
2023/06/25 06:34:42;;;;;;;8.00;6.68;;;;;;;20.38;46.21;96998.19;4954554;29;20043;-74
2023/06/25 06:37:11;;;;;;;8.18;6.70;;;;;;;20.45;45.10;96992.75;4953951;29;20079;-74
2023/06/25 06:39:39;;;;;;;8.77;7.10;;;;;;;20.52;44.87;96994.22;4954440;29;20063;-75
2023/06/25 06:42:07;;;;;;;8.52;7.43;;;;;;;20.60;45.03;96994.91;4958080;29;20075;-74
2023/06/25 06:44:34;;;;;;;7.82;6.60;;;;;;;20.68;44.86;96999.84;4974585;29;20064;-75
2023/06/25 06:47:02;;;;;;;9.93;6.70;;;;;;;20.75;44.75;96993.38;4973678;29;20059;-73
2023/06/25 06:49:29;;;;;;;7.07;6.13;;;;;;;20.82;44.86;96998.53;4974523;29;20110;-73
2023/06/25 06:51:58;;;;;;;7.15;6.45;;;;;;;20.89;44.08;97004.47;4973833;29;20047;-74
2023/06/25 06:54:29;;;;;;;7.40;6.30;;;;;;;20.97;44.51;96993.50;4973236;29;20051;-73
2023/06/25 06:56:56;;;;;;;8.68;6.00;;;;;;;21.06;43.99;97006.38;4972108;29;20051;-73
2023/06/25 06:59:24;;;;;;;6.95;6.20;;;;;;;21.15;43.83;96999.63;4954473;29;20047;-73
2023/06/25 07:01:51;;;;;;;8.43;6.65;;;;;;;21.24;43.41;96997.38;4953838;29;20051;-73
2023/06/25 07:04:19;;;;;;;9.50;6.90;;;;;;;21.36;43.52;97008.72;4954137;29;20051;-73
2023/06/25 07:06:47;;;;;;;7.18;6.03;;;;;;;21.46;42.90;97002.81;4953832;29;20055;-73
2023/06/25 07:09:23;;;;;;;7.50;6.28;;;;;;;21.56;42.99;97008.28;4954177;29;20087;-73
2023/06/25 07:11:52;;;;;;;9.25;6.03;;;;;;;21.63;42.04;97008.94;4953908;29;20043;-73
2023/06/25 07:14:19;;;;;;;7.60;6.18;;;;;;;21.71;42.38;97011.19;4953898;29;20153;-73
2023/06/25 07:16:47;;;;;;;18.77;14.75;;;;;;;21.82;42.42;97006.78;4953772;29;20138;-74
2023/06/25 07:19:14;;;;;;;29.27;21.80;;;;;;;21.89;42.66;97010.09;4953365;29;20093;-73
2023/06/25 07:21:42;;;;;;;10.23;8.38;;;;;;;21.97;42.41;97008.88;4953919;29;20047;-77
2023/06/25 07:24:10;;;;;;;7.90;6.88;;;;;;;22.04;42.12;97009.53;4953841;29;20057;-73
2023/06/25 07:26:39;;;;;;;7.28;6.50;;;;;;;22.13;42.15;97008.03;4953559;29;20063;-73
2023/06/25 07:29:06;;;;;;;8.80;6.65;;;;;;;22.20;42.24;97006.00;4953996;29;20051;-73
2023/06/25 07:31:34;;;;;;;7.68;6.88;;;;;;;22.28;42.25;96999.50;4952989;29;20075;-73
2023/06/25 07:34:01;;;;;;;6.97;5.97;;;;;;;22.35;41.83;96999.31;4953537;29;20134;-73
2023/06/25 07:36:29;;;;;;;6.55;5.95;;;;;;;22.42;41.62;97007.91;4953452;29;20051;-73
2023/06/25 07:38:58;;;;;;;6.85;6.13;;;;;;;22.48;40.79;97004.25;4952936;29;20131;-73
2023/06/25 07:41:26;;;;;;;8.27;6.20;;;;;;;22.56;41.36;96990.50;4953597;29;20098;-74
2023/06/25 07:43:55;;;;;;;7.00;6.28;;;;;;;22.65;41.37;96992.72;4952930;29;20047;-73
2023/06/25 07:46:23;;;;;;;6.97;5.88;;;;;;;22.75;41.16;96996.31;4953210;29;20590;-73
2023/06/25 07:48:51;;;;;;;8.98;6.57;;;;;;;22.85;41.47;96998.28;4953653;29;20426;-74
2023/06/25 07:51:18;;;;;;;7.97;5.90;;;;;;;22.94;40.66;96996.78;4955201;29;20063;-74
2023/06/25 07:53:46;;;;;;;7.45;6.13;;;;;;;23.02;39.10;96993.69;4960547;29;20051;-74
2023/06/25 07:56:13;;;;;;;6.25;5.55;;;;;;;23.11;39.13;96995.88;4964849;29;20048;-74
2023/06/25 07:58:41;;;;;;;34.90;24.63;;;;;;;23.19;39.33;96987.44;4956263;29;20075;-75
2023/06/25 08:01:10;;;;;;;9.02;7.47;;;;;;;23.31;38.36;96992.59;4954150;29;20039;-74
2023/06/25 08:03:38;;;;;;;8.40;7.28;;;;;;;23.40;39.02;96988.44;4954437;29;20101;-74
2023/06/25 08:06:06;;;;;;;6.20;5.57;;;;;;;23.50;38.63;96998.34;4953844;29;20396;-74
2023/06/25 08:08:33;;;;;;;6.80;6.07;;;;;;;23.58;37.62;96989.88;4953326;29;20133;-74
2023/06/25 08:11:01;;;;;;;5.65;5.03;;;;;;;23.65;36.57;96980.59;4953190;29;20095;-74
2023/06/25 08:13:28;;;;;;;6.30;5.65;;;;;;;23.73;36.73;96987.34;4953877;29;20116;-74
2023/06/25 08:15:56;;;;;;;6.13;5.22;;;;;;;23.79;35.36;96986.34;4954293;28;20079;-74
2023/06/25 08:18:25;;;;;;;5.90;5.07;;;;;;;23.85;35.02;96980.00;4952378;29;20413;-73
2023/06/25 08:20:52;;;;;;;6.70;4.65;;;;;;;23.94;34.83;96976.81;4937603;29;20165;-73
2023/06/25 08:23:20;;;;;;;5.28;4.57;;;;;;;24.01;34.48;96978.22;4938351;29;20435;-73
2023/06/25 08:25:48;;;;;;;5.40;4.65;;;;;;;24.11;34.81;96985.44;4956045;29;20102;-74
2023/06/25 08:28:15;;;;;;;19.38;11.13;;;;;;;24.20;35.13;96983.06;4956399;29;20142;-74
2023/06/25 08:30:43;;;;;;;9.40;7.35;;;;;;;24.29;34.28;96983.38;4955674;29;20507;-73
2023/06/25 08:33:11;;;;;;;5.10;4.45;;;;;;;24.33;34.14;96979.94;4956073;29;20059;-74
2023/06/25 08:35:39;;;;;;;4.32;3.92;;;;;;;24.40;34.01;96979.69;4955431;29;20102;-76
2023/06/25 08:38:07;;;;;;;4.70;4.10;;;;;;;24.46;34.40;96978.66;4957928;29;20051;-80
2023/06/25 08:40:36;;;;;;;5.80;4.88;;;;;;;24.53;33.76;96981.09;4959884;29;20059;-79
2023/06/25 08:43:03;;;;;;;6.25;4.18;;;;;;;24.61;34.19;96981.41;4959822;29;20127;-82
2023/06/25 08:45:31;;;;;;;5.25;4.22;;;;;;;24.66;33.86;96973.44;4955897;29;20047;-80
2023/06/25 08:48:04;;;;;;;5.45;3.90;;;;;;;24.73;33.75;96978.50;4956031;29;20066;-81
2023/06/25 08:50:31;;;;;;;4.20;3.80;;;;;;;24.80;34.37;96983.59;4940130;29;20075;-79
2023/06/25 08:53:00;;;;;;;4.95;3.63;;;;;;;24.85;35.21;96980.94;4955478;29;20494;-79
2023/06/25 08:55:28;;;;;;;5.43;4.18;;;;;;;24.92;34.82;96983.34;4958912;29;20435;-79
2023/06/25 08:57:56;;;;;;;4.28;3.88;;;;;;;24.98;34.47;96979.63;4959968;29;20083;-79
2023/06/25 09:00:23;;;;;;;5.68;3.47;;;;;;;25.03;33.86;96980.41;4962033;29;20578;-83
2023/06/25 09:02:51;;;;;;;3.97;3.58;;;;;;;25.09;33.36;96979.34;4958514;29;20054;-81
2023/06/25 09:05:24;;;;;;;4.15;3.75;;;;;;;25.16;33.78;96975.63;4956013;29;20052;-83
2023/06/25 09:07:51;;;;;;;3.88;3.55;;;;;;;25.21;33.85;96973.81;4952599;29;20054;-75
2023/06/25 09:10:21;;;;;;;5.10;4.05;;;;;;;25.24;33.71;96977.81;4955290;29;20571;-75
2023/06/25 09:12:50;;;;;;;7.20;3.90;;;;;;;25.28;34.51;96968.19;4955470;29;20154;-75
2023/06/25 09:15:21;;;;;;;4.97;3.65;;;;;;;25.38;34.68;96968.19;4942827;29;20483;-74
2023/06/25 09:17:49;;;;;;;4.80;4.22;;;;;;;25.49;34.41;96974.31;4954852;29;20434;-75
2023/06/25 09:20:17;;;;;;;3.97;3.40;;;;;;;25.56;33.91;96974.03;4936330;29;20051;-75
2023/06/25 09:22:50;;;;;;;4.95;3.65;;;;;;;25.60;33.41;96981.25;4946602;29;20051;-75
2023/06/25 09:25:18;;;;;;;5.88;3.17;;;;;;;25.60;33.41;96980.44;4954612;29;20109;-75
2023/06/25 09:27:48;;;;;;;4.10;3.70;;;;;;;25.62;33.25;96976.44;4954650;28;20075;-74
2023/06/25 09:30:18;;;;;;;4.05;3.65;;;;;;;25.61;32.52;96974.84;4955123;29;20051;-75
2023/06/25 09:32:49;;;;;;;6.90;4.07;;;;;;;25.63;33.61;96972.72;4955296;29;20438;-75
2023/06/25 09:35:22;;;;;;;4.72;3.45;;;;;;;25.71;33.41;96971.34;4954660;29;20422;-75
2023/06/25 09:37:50;;;;;;;;;;;;;;;25.79;33.89;96978.81;4955242;29;20123;-75
2023/06/25 09:40:18;;;;;;;5.43;3.88;;;;;;;25.81;32.89;96971.34;4954539;29;19923;-76
2023/06/25 09:42:49;;;;;;;4.10;3.70;;;;;;;25.83;32.81;96971.06;4954620;29;20492;-76
2023/06/25 09:45:17;;;;;;;4.20;3.80;;;;;;;25.84;32.35;96959.31;4955066;29;20116;-76
2023/06/25 09:47:47;;;;;;;4.40;4.00;;;;;;;25.91;33.12;96965.22;4954578;29;20533;-76
2023/06/25 09:50:18;;;;;;;4.07;3.70;;;;;;;25.98;33.62;96964.94;4954656;29;20086;-76
2023/06/25 09:52:51;;;;;;;3.92;3.50;;;;;;;26.05;33.62;96963.56;4954916;29;20047;-75
2023/06/25 09:55:20;;;;;;;4.70;4.18;;;;;;;26.09;33.41;96966.50;4954197;29;20137;-74
2023/06/25 09:57:50;;;;;;;3.78;3.47;;;;;;;26.13;31.98;96962.22;4954590;29;20051;-75
2023/06/25 10:00:21;;;;;;;5.10;3.90;;;;;;;26.20;32.26;96956.56;4953680;29;20047;-75
2023/06/25 10:02:49;;;;;;;4.50;3.78;;;;;;;26.24;32.23;96949.59;4954074;29;20043;-74
2023/06/25 10:05:17;;;;;;;5.03;4.30;;;;;;;26.25;31.93;96953.88;4954006;29;20134;-75
2023/06/25 10:07:45;;;;;;;5.57;3.75;;;;;;;26.25;32.79;96953.88;4953625;29;20083;-74
2023/06/25 10:10:20;;;;;;;4.57;4.18;;;;;;;26.31;31.77;96953.56;4952806;29;20601;-73
2023/06/25 10:12:50;;;;;;;5.35;3.47;;;;;;;26.38;32.16;96945.25;4952647;29;20047;-74
2023/06/25 10:15:27;;;;;;;5.55;3.65;;;;;;;26.40;31.11;96945.78;4953782;29;20139;-75
2023/06/25 10:17:58;;;;;;;5.43;3.75;;;;;;;26.41;31.65;96941.22;4952960;29;20059;-74
2023/06/25 10:20:27;;;;;;;3.72;3.42;;;;;;;26.47;31.83;96942.78;4954060;29;20058;-75
2023/06/25 10:23:21;;;;;;;3.78;3.38;;;;;;;26.55;31.93;96936.88;4953605;29;20047;-74
2023/06/25 10:25:55;;;;;;;5.93;4.15;;;;;;;26.59;31.93;96929.09;4951904;29;20135;-75
2023/06/25 10:28:30;;;;;;;4.55;3.63;;;;;;;26.63;31.69;96939.00;4953425;29;20094;-74
2023/06/25 10:31:12;;;;;;;3.90;3.40;;;;;;;26.70;30.99;96938.69;4951948;29;20055;-75
2023/06/25 10:33:40;;;;;;;5.60;3.40;;;;;;;26.75;31.07;96927.16;4953747;29;20047;-75
2023/06/25 10:36:09;;;;;;;5.32;3.55;;;;;;;26.81;30.80;96923.38;4953387;29;20055;-77
2023/06/25 10:38:37;;;;;;;4.05;2.95;;;;;;;26.86;30.94;96921.44;4952666;28;20582;-76
2023/06/25 10:41:05;;;;;;;3.95;3.55;;;;;;;26.90;30.93;96917.13;4953446;29;20047;-76
2023/06/25 10:43:37;;;;;;;4.07;3.50;;;;;;;26.95;30.93;96918.97;4953179;29;20074;-75
2023/06/25 10:46:04;;;;;;;4.38;3.75;;;;;;;27.02;30.26;96914.09;4952929;29;20051;-76
2023/06/25 10:48:32;;;;;;;4.28;3.40;;;;;;;27.04;29.30;96917.28;4953754;29;20055;-76
2023/06/25 10:51:00;;;;;;;4.28;3.78;;;;;;;27.06;29.74;96906.31;4953380;29;20083;-76
2023/06/25 10:53:27;;;;;;;4.07;3.70;;;;;;;27.09;30.65;96909.22;4953344;29;20047;-76
2023/06/25 10:55:55;;;;;;;5.05;3.67;;;;;;;27.15;30.49;96919.88;4953617;29;20087;-76
2023/06/25 10:58:25;;;;;;;4.90;3.33;;;;;;;27.20;30.33;96919.84;4952836;29;20043;-76
2023/06/25 11:00:56;;;;;;;4.10;3.70;;;;;;;27.22;29.63;96915.03;4952669;29;20047;-76
2023/06/25 11:03:24;;;;;;;3.90;3.50;;;;;;;27.24;30.10;96907.53;4952299;29;20510;-75
2023/06/25 11:05:52;;;;;;;4.15;3.42;;;;;;;27.27;30.30;96909.66;4952841;29;20626;-73
2023/06/25 11:08:24;;;;;;;3.83;3.25;;;;;;;27.32;30.13;96898.88;4951952;29;20089;-74
2023/06/25 11:10:51;;;;;;;;;;;;;;;27.36;30.78;96899.91;4953115;29;20078;-74
2023/06/25 11:13:19;;;;;;;4.13;3.72;;;;;;;27.38;30.89;96896.97;4955572;29;19970;-74
2023/06/25 11:15:46;;;;;;;4.10;3.65;;;;;;;27.36;29.90;96897.25;4952691;29;20051;-73
2023/06/25 11:18:15;;;;;;;4.53;3.33;;;;;;;27.37;30.11;96893.47;4949951;29;20417;-73
2023/06/25 11:20:44;;;;;;;3.63;3.33;;;;;;;27.39;29.53;96880.59;4948134;29;20155;-73
2023/06/25 11:23:14;;;;;;;5.85;3.97;;;;;;;27.42;29.67;96890.75;4953121;29;20079;-74
2023/06/25 11:25:42;;;;;;;4.47;3.25;;;;;;;27.45;29.03;96882.13;4952805;29;20051;-73
2023/06/25 11:28:13;;;;;;;4.05;3.42;;;;;;;27.47;29.33;96879.97;4953161;29;20115;-72
2023/06/25 11:30:41;;;;;;;3.78;3.42;;;;;;;27.48;28.70;96884.25;4953383;29;20055;-73
2023/06/25 11:33:10;;;;;;;3.38;3.08;;;;;;;27.50;28.61;96879.41;4952359;29;20043;-72
2023/06/25 11:35:40;;;;;;;4.55;3.45;;;;;;;27.51;28.07;96886.38;4952947;29;20062;-73
2023/06/25 11:38:08;;;;;;;4.07;3.30;;;;;;;27.50;27.73;96884.75;4952642;29;20051;-73
2023/06/25 11:40:38;;;;;;;3.53;3.22;;;;;;;27.48;28.21;96881.56;4952788;29;20138;-74